Terminal Aerodrome Forecast
Issued by NWS Sterling, VA

Current Version | Previous Version | Graphics & Text | Print | Product List | Glossary On
Versions: 1 2 3 4 5 6 7 8 9 10 11 12
656
FTUS41 KLWX 240536
TAFMRB
TAF
KMRB 240536Z 2406/2506 18005KT P6SM BKN200
     FM241000 VRB03KT 5SM BR BKN200
     FM241300 17004KT P6SM BKN200
     FM241800 17012G21KT P6SM SCT200
     FM242300 17009KT P6SM SCT150=

USA.gov is the U.S. government's official web portal to all federal, state and local government web resources and services.